sensor_id;sensor_type;location;lat;lon;timestamp;P1;durP1;ratioP1;P2;durP2;ratioP2
82417;SDS011;75985;53.734;10.260;2024-02-14T00:02:45;1.85;;;1.25;;
82417;SDS011;75985;53.734;10.260;2024-02-14T00:05:54;1.90;;;1.47;;
82417;SDS011;75985;53.734;10.260;2024-02-14T00:08:59;1.40;;;1.30;;
82417;SDS011;75985;53.734;10.260;2024-02-14T00:12:04;1.35;;;1.25;;
82417;SDS011;75985;53.734;10.260;2024-02-14T00:15:09;1.60;;;1.37;;
82417;SDS011;75985;53.734;10.260;2024-02-14T00:18:13;1.72;;;1.37;;
82417;SDS011;75985;53.734;10.260;2024-02-14T00:21:18;2.05;;;1.35;;
82417;SDS011;75985;53.734;10.260;2024-02-14T00:24:23;2.02;;;1.22;;
82417;SDS011;75985;53.734;10.260;2024-02-14T00:27:29;1.42;;;1.32;;
82417;SDS011;75985;53.734;10.260;2024-02-14T00:30:33;1.32;;;1.22;;
82417;SDS011;75985;53.734;10.260;2024-02-14T00:33:38;1.75;;;1.60;;
82417;SDS011;75985;53.734;10.260;2024-02-14T00:36:43;1.50;;;1.40;;
82417;SDS011;75985;53.734;10.260;2024-02-14T00:39:49;1.52;;;1.30;;
82417;SDS011;75985;53.734;10.260;2024-02-14T00:42:54;1.67;;;1.57;;
82417;SDS011;75985;53.734;10.260;2024-02-14T00:45:59;1.62;;;1.32;;
82417;SDS011;75985;53.734;10.260;2024-02-14T00:49:04;1.42;;;1.20;;
82417;SDS011;75985;53.734;10.260;2024-02-14T00:52:08;1.50;;;1.40;;
82417;SDS011;75985;53.734;10.260;2024-02-14T00:55:13;1.50;;;1.20;;
82417;SDS011;75985;53.734;10.260;2024-02-14T00:58:17;1.32;;;1.17;;
82417;SDS011;75985;53.734;10.260;2024-02-14T01:01:22;1.00;;;1.00;;
82417;SDS011;75985;53.734;10.260;2024-02-14T01:04:26;2.25;;;1.65;;
82417;SDS011;75985;53.734;10.260;2024-02-14T01:07:31;1.92;;;1.82;;
82417;SDS011;75985;53.734;10.260;2024-02-14T01:10:35;2.37;;;1.45;;
82417;SDS011;75985;53.734;10.260;2024-02-14T01:13:40;2.25;;;1.50;;
82417;SDS011;75985;53.734;10.260;2024-02-14T01:16:44;1.95;;;1.57;;
82417;SDS011;75985;53.734;10.260;2024-02-14T01:19:49;1.60;;;1.50;;
82417;SDS011;75985;53.734;10.260;2024-02-14T01:22:54;3.15;;;1.50;;
82417;SDS011;75985;53.734;10.260;2024-02-14T01:25:58;1.87;;;1.55;;
82417;SDS011;75985;53.734;10.260;2024-02-14T01:29:03;1.60;;;1.00;;
82417;SDS011;75985;53.734;10.260;2024-02-14T01:32:08;1.20;;;1.10;;
82417;SDS011;75985;53.734;10.260;2024-02-14T01:35:12;1.40;;;1.30;;
82417;SDS011;75985;53.734;10.260;2024-02-14T01:38:17;1.07;;;1.00;;
82417;SDS011;75985;53.734;10.260;2024-02-14T01:41:21;1.60;;;1.27;;
82417;SDS011;75985;53.734;10.260;2024-02-14T01:44:26;1.90;;;1.62;;
82417;SDS011;75985;53.734;10.260;2024-02-14T01:47:31;1.60;;;1.50;;
82417;SDS011;75985;53.734;10.260;2024-02-14T01:50:35;1.82;;;1.70;;
82417;SDS011;75985;53.734;10.260;2024-02-14T01:53:41;2.22;;;1.37;;
82417;SDS011;75985;53.734;10.260;2024-02-14T01:56:46;2.05;;;1.37;;
82417;SDS011;75985;53.734;10.260;2024-02-14T01:59:50;2.15;;;1.80;;
82417;SDS011;75985;53.734;10.260;2024-02-14T02:02:58;2.87;;;2.05;;
82417;SDS011;75985;53.734;10.260;2024-02-14T02:06:03;2.80;;;2.10;;
82417;SDS011;75985;53.734;10.260;2024-02-14T02:09:09;3.10;;;1.70;;
82417;SDS011;75985;53.734;10.260;2024-02-14T02:12:15;1.92;;;1.75;;
82417;SDS011;75985;53.734;10.260;2024-02-14T02:15:19;2.20;;;1.90;;
82417;SDS011;75985;53.734;10.260;2024-02-14T02:18:24;2.02;;;1.57;;
82417;SDS011;75985;53.734;10.260;2024-02-14T02:21:29;1.62;;;1.52;;
82417;SDS011;75985;53.734;10.260;2024-02-14T02:24:33;2.30;;;2.10;;
82417;SDS011;75985;53.734;10.260;2024-02-14T02:27:38;2.08;;;1.80;;
82417;SDS011;75985;53.734;10.260;2024-02-14T02:30:42;2.00;;;1.87;;
82417;SDS011;75985;53.734;10.260;2024-02-14T02:33:49;1.87;;;1.70;;
82417;SDS011;75985;53.734;10.260;2024-02-14T02:36:53;2.08;;;1.77;;
82417;SDS011;75985;53.734;10.260;2024-02-14T02:39:59;2.17;;;1.90;;
82417;SDS011;75985;53.734;10.260;2024-02-14T02:43:03;3.08;;;1.95;;
82417;SDS011;75985;53.734;10.260;2024-02-14T02:46:11;2.12;;;1.82;;
82417;SDS011;75985;53.734;10.260;2024-02-14T02:49:16;2.50;;;2.10;;
82417;SDS011;75985;53.734;10.260;2024-02-14T02:52:20;2.17;;;2.08;;
82417;SDS011;75985;53.734;10.260;2024-02-14T02:55:25;4.50;;;2.50;;
82417;SDS011;75985;53.734;10.260;2024-02-14T02:58:29;3.85;;;2.42;;
82417;SDS011;75985;53.734;10.260;2024-02-14T03:01:36;2.67;;;2.47;;
82417;SDS011;75985;53.734;10.260;2024-02-14T03:04:42;2.40;;;2.20;;
82417;SDS011;75985;53.734;10.260;2024-02-14T03:07:48;2.70;;;2.50;;
82417;SDS011;75985;53.734;10.260;2024-02-14T03:10:53;2.50;;;2.00;;
82417;SDS011;75985;53.734;10.260;2024-02-14T03:13:57;2.17;;;1.98;;
82417;SDS011;75985;53.734;10.260;2024-02-14T03:17:02;2.45;;;2.25;;
82417;SDS011;75985;53.734;10.260;2024-02-14T03:20:07;2.98;;;2.62;;
82417;SDS011;75985;53.734;10.260;2024-02-14T03:23:19;2.98;;;2.77;;
82417;SDS011;75985;53.734;10.260;2024-02-14T03:26:25;2.92;;;2.65;;
82417;SDS011;75985;53.734;10.260;2024-02-14T03:29:29;3.00;;;2.70;;
82417;SDS011;75985;53.734;10.260;2024-02-14T03:32:34;2.65;;;2.00;;
82417;SDS011;75985;53.734;10.260;2024-02-14T03:35:39;2.60;;;2.30;;
82417;SDS011;75985;53.734;10.260;2024-02-14T03:38:43;2.80;;;2.55;;
82417;SDS011;75985;53.734;10.260;2024-02-14T03:41:49;2.85;;;2.65;;
82417;SDS011;75985;53.734;10.260;2024-02-14T03:44:53;3.12;;;2.45;;
82417;SDS011;75985;53.734;10.260;2024-02-14T03:47:59;2.70;;;2.50;;
82417;SDS011;75985;53.734;10.260;2024-02-14T03:51:04;3.10;;;2.60;;
82417;SDS011;75985;53.734;10.260;2024-02-14T03:54:08;3.30;;;2.50;;
82417;SDS011;75985;53.734;10.260;2024-02-14T03:57:14;2.40;;;2.20;;
82417;SDS011;75985;53.734;10.260;2024-02-14T04:00:18;2.60;;;2.40;;
82417;SDS011;75985;53.734;10.260;2024-02-14T04:03:24;3.10;;;2.67;;
82417;SDS011;75985;53.734;10.260;2024-02-14T04:06:30;2.67;;;2.47;;
82417;SDS011;75985;53.734;10.260;2024-02-14T04:09:35;3.87;;;3.25;;
82417;SDS011;75985;53.734;10.260;2024-02-14T04:12:39;3.42;;;3.12;;
82417;SDS011;75985;53.734;10.260;2024-02-14T04:15:44;3.37;;;2.87;;
82417;SDS011;75985;53.734;10.260;2024-02-14T04:18:49;3.60;;;2.70;;
82417;SDS011;75985;53.734;10.260;2024-02-14T04:21:53;2.70;;;2.50;;
82417;SDS011;75985;53.734;10.260;2024-02-14T04:24:58;3.92;;;3.45;;
82417;SDS011;75985;53.734;10.260;2024-02-14T04:28:03;3.20;;;2.90;;
82417;SDS011;75985;53.734;10.260;2024-02-14T04:31:07;4.50;;;2.98;;
82417;SDS011;75985;53.734;10.260;2024-02-14T04:34:12;4.15;;;3.75;;
82417;SDS011;75985;53.734;10.260;2024-02-14T04:37:17;4.08;;;3.67;;
82417;SDS011;75985;53.734;10.260;2024-02-14T04:40:22;3.95;;;3.55;;
82417;SDS011;75985;53.734;10.260;2024-02-14T04:43:26;3.52;;;3.22;;
82417;SDS011;75985;53.734;10.260;2024-02-14T04:46:31;5.78;;;4.05;;
82417;SDS011;75985;53.734;10.260;2024-02-14T04:49:38;3.75;;;3.35;;
82417;SDS011;75985;53.734;10.260;2024-02-14T04:52:43;4.45;;;3.72;;
82417;SDS011;75985;53.734;10.260;2024-02-14T04:55:48;4.22;;;3.83;;
82417;SDS011;75985;53.734;10.260;2024-02-14T04:58:53;5.10;;;3.95;;
82417;SDS011;75985;53.734;10.260;2024-02-14T05:01:58;3.95;;;3.45;;
82417;SDS011;75985;53.734;10.260;2024-02-14T05:05:03;4.58;;;4.15;;
82417;SDS011;75985;53.734;10.260;2024-02-14T05:08:08;5.58;;;4.22;;
82417;SDS011;75985;53.734;10.260;2024-02-14T05:11:13;5.00;;;4.28;;
82417;SDS011;75985;53.734;10.260;2024-02-14T05:14:17;4.35;;;3.92;;
82417;SDS011;75985;53.734;10.260;2024-02-14T05:17:23;6.62;;;4.50;;
82417;SDS011;75985;53.734;10.260;2024-02-14T05:20:27;4.97;;;4.00;;
82417;SDS011;75985;53.734;10.260;2024-02-14T05:23:32;4.58;;;4.15;;
82417;SDS011;75985;53.734;10.260;2024-02-14T05:26:37;4.35;;;3.80;;
82417;SDS011;75985;53.734;10.260;2024-02-14T05:29:42;5.30;;;3.98;;
82417;SDS011;75985;53.734;10.260;2024-02-14T05:32:46;5.22;;;4.10;;
82417;SDS011;75985;53.734;10.260;2024-02-14T05:35:51;4.97;;;3.77;;
82417;SDS011;75985;53.734;10.260;2024-02-14T05:38:56;5.20;;;4.67;;
82417;SDS011;75985;53.734;10.260;2024-02-14T05:42:00;5.72;;;4.55;;
82417;SDS011;75985;53.734;10.260;2024-02-14T05:45:05;4.97;;;4.30;;
82417;SDS011;75985;53.734;10.260;2024-02-14T05:48:12;5.55;;;4.40;;
82417;SDS011;75985;53.734;10.260;2024-02-14T05:51:17;5.87;;;5.28;;
82417;SDS011;75985;53.734;10.260;2024-02-14T05:54:22;5.60;;;5.03;;
82417;SDS011;75985;53.734;10.260;2024-02-14T05:57:27;5.70;;;5.08;;
82417;SDS011;75985;53.734;10.260;2024-02-14T06:00:32;4.85;;;4.37;;
82417;SDS011;75985;53.734;10.260;2024-02-14T06:03:37;5.65;;;4.42;;
82417;SDS011;75985;53.734;10.260;2024-02-14T06:06:41;4.53;;;4.12;;
82417;SDS011;75985;53.734;10.260;2024-02-14T06:09:46;5.25;;;3.92;;
82417;SDS011;75985;53.734;10.260;2024-02-14T06:12:50;3.72;;;3.42;;
82417;SDS011;75985;53.734;10.260;2024-02-14T06:15:55;5.12;;;3.90;;
82417;SDS011;75985;53.734;10.260;2024-02-14T06:18:59;4.58;;;3.70;;
82417;SDS011;75985;53.734;10.260;2024-02-14T06:22:06;5.35;;;4.10;;
82417;SDS011;75985;53.734;10.260;2024-02-14T06:25:10;5.92;;;4.42;;
82417;SDS011;75985;53.734;10.260;2024-02-14T06:28:15;5.75;;;4.85;;
82417;SDS011;75985;53.734;10.260;2024-02-14T06:31:20;6.17;;;5.25;;
82417;SDS011;75985;53.734;10.260;2024-02-14T06:34:26;5.00;;;4.28;;
82417;SDS011;75985;53.734;10.260;2024-02-14T06:37:30;4.83;;;4.20;;
82417;SDS011;75985;53.734;10.260;2024-02-14T06:40:35;4.33;;;3.85;;
82417;SDS011;75985;53.734;10.260;2024-02-14T06:43:40;6.10;;;5.28;;
82417;SDS011;75985;53.734;10.260;2024-02-14T06:46:44;5.40;;;4.90;;
82417;SDS011;75985;53.734;10.260;2024-02-14T06:49:49;6.28;;;4.45;;
82417;SDS011;75985;53.734;10.260;2024-02-14T06:52:53;4.92;;;4.42;;
82417;SDS011;75985;53.734;10.260;2024-02-14T06:55:59;4.67;;;4.17;;
82417;SDS011;75985;53.734;10.260;2024-02-14T06:59:04;6.50;;;5.00;;
82417;SDS011;75985;53.734;10.260;2024-02-14T07:02:08;5.95;;;4.75;;
82417;SDS011;75985;53.734;10.260;2024-02-14T07:05:13;5.08;;;4.22;;
82417;SDS011;75985;53.734;10.260;2024-02-14T07:08:17;5.15;;;4.28;;
82417;SDS011;75985;53.734;10.260;2024-02-14T07:11:22;5.00;;;3.98;;
82417;SDS011;75985;53.734;10.260;2024-02-14T07:14:26;5.80;;;5.20;;
82417;SDS011;75985;53.734;10.260;2024-02-14T07:17:31;7.10;;;5.80;;
82417;SDS011;75985;53.734;10.260;2024-02-14T07:20:36;7.05;;;5.58;;
82417;SDS011;75985;53.734;10.260;2024-02-14T07:23:41;5.95;;;4.60;;
82417;SDS011;75985;53.734;10.260;2024-02-14T07:26:45;6.72;;;5.47;;
82417;SDS011;75985;53.734;10.260;2024-02-14T07:29:50;10.28;;;6.42;;
82417;SDS011;75985;53.734;10.260;2024-02-14T07:32:54;6.83;;;5.80;;
82417;SDS011;75985;53.734;10.260;2024-02-14T07:35:59;7.25;;;6.40;;
82417;SDS011;75985;53.734;10.260;2024-02-14T07:39:03;5.85;;;4.85;;
82417;SDS011;75985;53.734;10.260;2024-02-14T07:42:08;6.42;;;5.17;;
82417;SDS011;75985;53.734;10.260;2024-02-14T07:45:12;6.37;;;5.40;;
82417;SDS011;75985;53.734;10.260;2024-02-14T07:48:17;5.87;;;5.28;;
82417;SDS011;75985;53.734;10.260;2024-02-14T07:51:22;6.67;;;4.90;;
82417;SDS011;75985;53.734;10.260;2024-02-14T07:54:28;5.00;;;4.30;;
82417;SDS011;75985;53.734;10.260;2024-02-14T07:57:32;6.22;;;4.45;;
82417;SDS011;75985;53.734;10.260;2024-02-14T08:00:37;5.22;;;3.90;;
82417;SDS011;75985;53.734;10.260;2024-02-14T08:03:42;6.53;;;3.95;;
82417;SDS011;75985;53.734;10.260;2024-02-14T08:06:48;3.70;;;3.40;;
82417;SDS011;75985;53.734;10.260;2024-02-14T08:09:54;4.92;;;4.15;;
82417;SDS011;75985;53.734;10.260;2024-02-14T08:12:58;4.20;;;3.62;;
82417;SDS011;75985;53.734;10.260;2024-02-14T08:16:03;3.67;;;3.35;;
82417;SDS011;75985;53.734;10.260;2024-02-14T08:19:07;4.80;;;4.22;;
82417;SDS011;75985;53.734;10.260;2024-02-14T08:22:12;6.78;;;5.50;;
82417;SDS011;75985;53.734;10.260;2024-02-14T08:25:17;6.47;;;4.30;;
82417;SDS011;75985;53.734;10.260;2024-02-14T08:28:21;5.28;;;4.30;;
82417;SDS011;75985;53.734;10.260;2024-02-14T08:31:26;4.08;;;3.67;;
82417;SDS011;75985;53.734;10.260;2024-02-14T08:34:31;3.90;;;3.52;;
82417;SDS011;75985;53.734;10.260;2024-02-14T08:37:35;3.77;;;3.47;;
82417;SDS011;75985;53.734;10.260;2024-02-14T08:40:40;3.87;;;3.47;;
82417;SDS011;75985;53.734;10.260;2024-02-14T08:43:45;3.52;;;3.22;;
82417;SDS011;75985;53.734;10.260;2024-02-14T08:46:50;5.87;;;4.87;;
82417;SDS011;75985;53.734;10.260;2024-02-14T08:49:55;4.65;;;4.22;;
82417;SDS011;75985;53.734;10.260;2024-02-14T08:53:00;4.75;;;3.77;;
82417;SDS011;75985;53.734;10.260;2024-02-14T08:56:05;4.00;;;3.58;;
82417;SDS011;75985;53.734;10.260;2024-02-14T08:59:10;4.37;;;3.98;;
82417;SDS011;75985;53.734;10.260;2024-02-14T09:02:16;4.08;;;3.72;;
82417;SDS011;75985;53.734;10.260;2024-02-14T09:05:20;3.10;;;2.80;;
82417;SDS011;75985;53.734;10.260;2024-02-14T09:08:25;3.95;;;3.17;;
82417;SDS011;75985;53.734;10.260;2024-02-14T09:11:30;3.60;;;3.30;;
82417;SDS011;75985;53.734;10.260;2024-02-14T09:14:34;4.37;;;3.22;;
82417;SDS011;75985;53.734;10.260;2024-02-14T09:17:39;3.35;;;2.80;;
82417;SDS011;75985;53.734;10.260;2024-02-14T09:20:44;3.77;;;3.37;;
82417;SDS011;75985;53.734;10.260;2024-02-14T09:23:49;4.78;;;3.60;;
82417;SDS011;75985;53.734;10.260;2024-02-14T09:26:54;4.62;;;3.37;;
82417;SDS011;75985;53.734;10.260;2024-02-14T09:29:59;4.08;;;3.00;;
82417;SDS011;75985;53.734;10.260;2024-02-14T09:33:06;3.80;;;3.50;;
82417;SDS011;75985;53.734;10.260;2024-02-14T09:36:11;4.20;;;3.58;;
82417;SDS011;75985;53.734;10.260;2024-02-14T09:39:17;3.77;;;3.37;;
82417;SDS011;75985;53.734;10.260;2024-02-14T09:42:23;3.80;;;3.50;;
82417;SDS011;75985;53.734;10.260;2024-02-14T09:45:31;3.60;;;3.30;;
82417;SDS011;75985;53.734;10.260;2024-02-14T09:48:36;4.58;;;4.17;;
82417;SDS011;75985;53.734;10.260;2024-02-14T09:51:44;4.60;;;4.20;;
82417;SDS011;75985;53.734;10.260;2024-02-14T09:54:51;4.75;;;4.35;;
82417;SDS011;75985;53.734;10.260;2024-02-14T09:57:56;3.67;;;3.33;;
82417;SDS011;75985;53.734;10.260;2024-02-14T10:01:03;3.60;;;3.30;;
82417;SDS011;75985;53.734;10.260;2024-02-14T10:04:09;3.30;;;2.87;;
82417;SDS011;75985;53.734;10.260;2024-02-14T10:07:14;2.52;;;2.33;;
82417;SDS011;75985;53.734;10.260;2024-02-14T10:10:19;3.08;;;2.87;;
82417;SDS011;75985;53.734;10.260;2024-02-14T10:13:28;3.10;;;2.85;;
82417;SDS011;75985;53.734;10.260;2024-02-14T10:16:34;3.30;;;3.05;;
82417;SDS011;75985;53.734;10.260;2024-02-14T10:19:39;3.37;;;3.08;;
82417;SDS011;75985;53.734;10.260;2024-02-14T10:22:43;3.17;;;2.98;;
82417;SDS011;75985;53.734;10.260;2024-02-14T10:25:49;2.90;;;2.70;;
82417;SDS011;75985;53.734;10.260;2024-02-14T10:28:56;2.75;;;2.55;;
82417;SDS011;75985;53.734;10.260;2024-02-14T10:32:01;2.98;;;2.77;;
82417;SDS011;75985;53.734;10.260;2024-02-14T10:35:05;3.52;;;3.22;;
82417;SDS011;75985;53.734;10.260;2024-02-14T10:38:11;3.45;;;3.15;;
82417;SDS011;75985;53.734;10.260;2024-02-14T10:41:18;2.65;;;2.45;;
82417;SDS011;75985;53.734;10.260;2024-02-14T10:44:23;3.25;;;2.12;;
82417;SDS011;75985;53.734;10.260;2024-02-14T10:47:31;2.72;;;2.52;;
82417;SDS011;75985;53.734;10.260;2024-02-14T10:50:40;2.42;;;2.20;;
82417;SDS011;75985;53.734;10.260;2024-02-14T10:53:45;3.12;;;2.92;;
82417;SDS011;75985;53.734;10.260;2024-02-14T10:56:52;3.37;;;3.08;;
82417;SDS011;75985;53.734;10.260;2024-02-14T11:00:03;3.67;;;3.37;;
82417;SDS011;75985;53.734;10.260;2024-02-14T11:03:13;3.02;;;2.83;;
82417;SDS011;75985;53.734;10.260;2024-02-14T11:06:18;3.45;;;3.15;;
82417;SDS011;75985;53.734;10.260;2024-02-14T11:09:31;3.20;;;3.00;;
82417;SDS011;75985;53.734;10.260;2024-02-14T11:12:37;2.90;;;2.70;;
82417;SDS011;75985;53.734;10.260;2024-02-14T11:15:44;3.12;;;2.92;;
82417;SDS011;75985;53.734;10.260;2024-02-14T11:18:49;2.72;;;2.52;;
82417;SDS011;75985;53.734;10.260;2024-02-14T11:21:56;2.77;;;2.58;;
82417;SDS011;75985;53.734;10.260;2024-02-14T11:25:05;3.17;;;2.98;;
82417;SDS011;75985;53.734;10.260;2024-02-14T11:28:15;3.33;;;3.12;;
82417;SDS011;75985;53.734;10.260;2024-02-14T11:31:23;3.33;;;3.12;;
82417;SDS011;75985;53.734;10.260;2024-02-14T11:34:30;3.90;;;3.60;;
82417;SDS011;75985;53.734;10.260;2024-02-14T11:37:36;4.97;;;4.12;;
82417;SDS011;75985;53.734;10.260;2024-02-14T11:40:40;3.90;;;3.60;;
82417;SDS011;75985;53.734;10.260;2024-02-14T11:43:51;3.92;;;3.62;;
82417;SDS011;75985;53.734;10.260;2024-02-14T11:46:56;3.98;;;3.62;;
82417;SDS011;75985;53.734;10.260;2024-02-14T11:50:01;3.47;;;3.20;;
82417;SDS011;75985;53.734;10.260;2024-02-14T11:53:06;3.72;;;3.40;;
82417;SDS011;75985;53.734;10.260;2024-02-14T11:56:12;4.45;;;4.05;;
82417;SDS011;75985;53.734;10.260;2024-02-14T11:59:18;4.17;;;3.77;;
82417;SDS011;75985;53.734;10.260;2024-02-14T12:02:24;4.37;;;3.98;;
82417;SDS011;75985;53.734;10.260;2024-02-14T12:05:29;5.28;;;4.78;;
82417;SDS011;75985;53.734;10.260;2024-02-14T12:08:34;4.78;;;4.37;;
82417;SDS011;75985;53.734;10.260;2024-02-14T12:11:39;4.80;;;4.40;;
82417;SDS011;75985;53.734;10.260;2024-02-14T12:14:46;4.62;;;4.22;;
82417;SDS011;75985;53.734;10.260;2024-02-14T12:17:54;4.22;;;3.80;;
82417;SDS011;75985;53.734;10.260;2024-02-14T12:21:05;4.00;;;3.70;;
82417;SDS011;75985;53.734;10.260;2024-02-14T12:24:13;4.33;;;3.85;;
82417;SDS011;75985;53.734;10.260;2024-02-14T12:27:18;5.20;;;4.75;;
82417;SDS011;75985;53.734;10.260;2024-02-14T12:30:23;4.17;;;3.87;;
82417;SDS011;75985;53.734;10.260;2024-02-14T12:33:28;4.85;;;4.45;;
82417;SDS011;75985;53.734;10.260;2024-02-14T12:36:34;4.70;;;4.30;;
82417;SDS011;75985;53.734;10.260;2024-02-14T12:39:39;4.00;;;3.70;;
82417;SDS011;75985;53.734;10.260;2024-02-14T12:42:43;5.72;;;5.12;;
82417;SDS011;75985;53.734;10.260;2024-02-14T12:45:48;5.80;;;5.30;;
82417;SDS011;75985;53.734;10.260;2024-02-14T12:48:53;5.05;;;4.55;;
82417;SDS011;75985;53.734;10.260;2024-02-14T12:51:59;6.12;;;5.62;;
82417;SDS011;75985;53.734;10.260;2024-02-14T12:55:04;6.67;;;6.08;;
82417;SDS011;75985;53.734;10.260;2024-02-14T12:58:08;5.87;;;5.35;;
82417;SDS011;75985;53.734;10.260;2024-02-14T13:01:13;4.92;;;4.53;;
82417;SDS011;75985;53.734;10.260;2024-02-14T13:04:19;6.12;;;5.47;;
82417;SDS011;75985;53.734;10.260;2024-02-14T13:07:24;5.60;;;5.10;;
82417;SDS011;75985;53.734;10.260;2024-02-14T13:10:28;6.28;;;5.70;;
82417;SDS011;75985;53.734;10.260;2024-02-14T13:13:33;6.40;;;5.12;;
82417;SDS011;75985;53.734;10.260;2024-02-14T13:16:39;4.65;;;4.25;;
82417;SDS011;75985;53.734;10.260;2024-02-14T13:19:43;6.40;;;5.85;;
82417;SDS011;75985;53.734;10.260;2024-02-14T13:22:48;5.20;;;4.70;;
82417;SDS011;75985;53.734;10.260;2024-02-14T13:25:53;5.00;;;4.50;;
82417;SDS011;75985;53.734;10.260;2024-02-14T13:28:57;4.80;;;4.40;;
82417;SDS011;75985;53.734;10.260;2024-02-14T13:32:02;4.20;;;3.80;;
82417;SDS011;75985;53.734;10.260;2024-02-14T13:35:09;5.25;;;4.75;;
82417;SDS011;75985;53.734;10.260;2024-02-14T13:38:15;4.60;;;4.20;;
82417;SDS011;75985;53.734;10.260;2024-02-14T13:41:20;4.10;;;3.80;;
82417;SDS011;75985;53.734;10.260;2024-02-14T13:44:24;4.28;;;3.87;;
82417;SDS011;75985;53.734;10.260;2024-02-14T13:47:29;4.25;;;3.85;;
82417;SDS011;75985;53.734;10.260;2024-02-14T13:50:34;4.80;;;4.33;;
82417;SDS011;75985;53.734;10.260;2024-02-14T13:53:38;4.30;;;3.90;;
82417;SDS011;75985;53.734;10.260;2024-02-14T13:56:43;3.90;;;3.50;;
82417;SDS011;75985;53.734;10.260;2024-02-14T13:59:48;4.00;;;3.58;;
82417;SDS011;75985;53.734;10.260;2024-02-14T14:02:53;5.50;;;5.00;;
82417;SDS011;75985;53.734;10.260;2024-02-14T14:05:58;8.35;;;5.78;;
82417;SDS011;75985;53.734;10.260;2024-02-14T14:09:03;9.40;;;6.85;;
82417;SDS011;75985;53.734;10.260;2024-02-14T14:12:08;9.25;;;7.12;;
82417;SDS011;75985;53.734;10.260;2024-02-14T14:15:13;9.48;;;7.42;;
82417;SDS011;75985;53.734;10.260;2024-02-14T14:18:18;11.60;;;8.00;;
82417;SDS011;75985;53.734;10.260;2024-02-14T14:21:22;12.53;;;8.58;;
82417;SDS011;75985;53.734;10.260;2024-02-14T14:24:27;13.90;;;9.70;;
82417;SDS011;75985;53.734;10.260;2024-02-14T14:27:34;18.98;;;11.35;;
82417;SDS011;75985;53.734;10.260;2024-02-14T14:30:38;15.35;;;10.03;;
82417;SDS011;75985;53.734;10.260;2024-02-14T14:33:43;14.25;;;9.10;;
82417;SDS011;75985;53.734;10.260;2024-02-14T14:36:48;14.35;;;10.03;;
82417;SDS011;75985;53.734;10.260;2024-02-14T14:39:52;12.82;;;9.15;;
82417;SDS011;75985;53.734;10.260;2024-02-14T14:42:58;13.60;;;9.85;;
82417;SDS011;75985;53.734;10.260;2024-02-14T14:46:02;15.48;;;10.05;;
82417;SDS011;75985;53.734;10.260;2024-02-14T14:49:08;15.55;;;9.88;;
82417;SDS011;75985;53.734;10.260;2024-02-14T14:52:13;12.15;;;9.13;;
82417;SDS011;75985;53.734;10.260;2024-02-14T14:55:17;12.18;;;9.05;;
82417;SDS011;75985;53.734;10.260;2024-02-14T14:58:22;15.05;;;10.20;;
82417;SDS011;75985;53.734;10.260;2024-02-14T15:01:30;16.70;;;10.58;;
82417;SDS011;75985;53.734;10.260;2024-02-14T15:04:37;14.03;;;9.70;;
82417;SDS011;75985;53.734;10.260;2024-02-14T15:07:43;16.52;;;10.43;;
82417;SDS011;75985;53.734;10.260;2024-02-14T15:10:47;13.28;;;9.15;;
82417;SDS011;75985;53.734;10.260;2024-02-14T15:13:54;11.25;;;7.80;;
82417;SDS011;75985;53.734;10.260;2024-02-14T15:16:59;13.50;;;8.73;;
82417;SDS011;75985;53.734;10.260;2024-02-14T15:20:03;13.40;;;8.50;;
82417;SDS011;75985;53.734;10.260;2024-02-14T15:23:09;11.70;;;7.72;;
82417;SDS011;75985;53.734;10.260;2024-02-14T15:26:13;10.23;;;7.20;;
82417;SDS011;75985;53.734;10.260;2024-02-14T15:29:19;11.68;;;7.70;;
82417;SDS011;75985;53.734;10.260;2024-02-14T15:32:41;12.47;;;8.75;;
82417;SDS011;75985;53.734;10.260;2024-02-14T15:36:04;11.15;;;7.22;;
82417;SDS011;75985;53.734;10.260;2024-02-14T15:39:09;7.60;;;5.78;;
82417;SDS011;75985;53.734;10.260;2024-02-14T15:42:13;9.35;;;6.80;;
82417;SDS011;75985;53.734;10.260;2024-02-14T15:45:18;10.38;;;7.42;;
82417;SDS011;75985;53.734;10.260;2024-02-14T15:48:22;11.25;;;7.22;;
82417;SDS011;75985;53.734;10.260;2024-02-14T15:51:31;8.28;;;6.60;;
82417;SDS011;75985;53.734;10.260;2024-02-14T15:54:36;9.15;;;7.12;;
82417;SDS011;75985;53.734;10.260;2024-02-14T15:57:43;13.72;;;8.80;;
82417;SDS011;75985;53.734;10.260;2024-02-14T16:00:49;11.40;;;8.35;;
82417;SDS011;75985;53.734;10.260;2024-02-14T16:03:53;13.72;;;9.43;;
82417;SDS011;75985;53.734;10.260;2024-02-14T16:06:58;13.43;;;9.40;;
82417;SDS011;75985;53.734;10.260;2024-02-14T16:10:03;15.40;;;10.05;;
82417;SDS011;75985;53.734;10.260;2024-02-14T16:13:08;15.32;;;9.95;;
82417;SDS011;75985;53.734;10.260;2024-02-14T16:16:13;15.65;;;10.18;;
82417;SDS011;75985;53.734;10.260;2024-02-14T16:19:17;14.23;;;9.40;;
82417;SDS011;75985;53.734;10.260;2024-02-14T16:22:22;16.80;;;10.88;;
82417;SDS011;75985;53.734;10.260;2024-02-14T16:25:27;14.65;;;10.88;;
82417;SDS011;75985;53.734;10.260;2024-02-14T16:28:33;16.52;;;11.85;;
82417;SDS011;75985;53.734;10.260;2024-02-14T16:31:38;19.42;;;12.65;;
82417;SDS011;75985;53.734;10.260;2024-02-14T16:34:42;24.67;;;14.73;;
82417;SDS011;75985;53.734;10.260;2024-02-14T16:37:48;30.88;;;16.80;;
82417;SDS011;75985;53.734;10.260;2024-02-14T16:40:53;25.43;;;14.75;;
82417;SDS011;75985;53.734;10.260;2024-02-14T16:43:58;25.25;;;16.70;;
82417;SDS011;75985;53.734;10.260;2024-02-14T16:47:02;23.07;;;16.05;;
82417;SDS011;75985;53.734;10.260;2024-02-14T16:50:07;20.05;;;14.60;;
82417;SDS011;75985;53.734;10.260;2024-02-14T16:53:12;25.48;;;16.75;;
82417;SDS011;75985;53.734;10.260;2024-02-14T16:56:16;25.55;;;16.62;;
82417;SDS011;75985;53.734;10.260;2024-02-14T16:59:21;31.30;;;18.17;;
82417;SDS011;75985;53.734;10.260;2024-02-14T17:02:26;28.87;;;17.48;;
82417;SDS011;75985;53.734;10.260;2024-02-14T17:05:31;29.18;;;17.40;;
82417;SDS011;75985;53.734;10.260;2024-02-14T17:08:35;32.65;;;18.52;;
82417;SDS011;75985;53.734;10.260;2024-02-14T17:11:40;28.70;;;16.87;;
82417;SDS011;75985;53.734;10.260;2024-02-14T17:14:45;33.05;;;18.37;;
82417;SDS011;75985;53.734;10.260;2024-02-14T17:17:50;33.00;;;17.30;;
82417;SDS011;75985;53.734;10.260;2024-02-14T17:20:55;37.45;;;19.25;;
82417;SDS011;75985;53.734;10.260;2024-02-14T17:24:00;31.62;;;17.87;;
82417;SDS011;75985;53.734;10.260;2024-02-14T17:27:04;34.67;;;19.57;;
82417;SDS011;75985;53.734;10.260;2024-02-14T17:30:10;34.13;;;18.20;;
82417;SDS011;75985;53.734;10.260;2024-02-14T17:33:15;28.87;;;15.18;;
82417;SDS011;75985;53.734;10.260;2024-02-14T17:36:20;35.58;;;17.15;;
82417;SDS011;75985;53.734;10.260;2024-02-14T17:39:26;26.82;;;14.65;;
82417;SDS011;75985;53.734;10.260;2024-02-14T17:42:31;29.70;;;15.58;;
82417;SDS011;75985;53.734;10.260;2024-02-14T17:45:35;34.78;;;17.65;;
82417;SDS011;75985;53.734;10.260;2024-02-14T17:48:40;25.52;;;15.28;;
82417;SDS011;75985;53.734;10.260;2024-02-14T17:51:44;24.10;;;13.90;;
82417;SDS011;75985;53.734;10.260;2024-02-14T17:54:49;24.43;;;13.43;;
82417;SDS011;75985;53.734;10.260;2024-02-14T17:57:55;31.40;;;16.27;;
82417;SDS011;75985;53.734;10.260;2024-02-14T18:00:59;38.45;;;17.80;;
82417;SDS011;75985;53.734;10.260;2024-02-14T18:04:04;28.52;;;15.00;;
82417;SDS011;75985;53.734;10.260;2024-02-14T18:07:09;24.43;;;13.50;;
82417;SDS011;75985;53.734;10.260;2024-02-14T18:10:14;30.82;;;14.10;;
82417;SDS011;75985;53.734;10.260;2024-02-14T18:13:18;24.60;;;14.07;;
82417;SDS011;75985;53.734;10.260;2024-02-14T18:16:23;19.87;;;11.45;;